Time;durP1;ratioP1;P1;durP2;ratioP2;P2;SDS_P1;SDS_P2;PMS_P1;PMS_P2;Temp;Humidity;BMP_temperature;BMP_pressure;BME280_temperature;BME280_humidity;BME280_pressure;Samples;Min_cycle;Max_cycle;Signal;HPM_P1;HPM_P2
2021/08/01 00:04:19;;;;;;;12.63;7.93;;;;;;;14.72;81.37;100835.41;10459265;28;20539;-66
2021/08/01 00:09:21;;;;;;;13.90;11.00;;;;;;;14.52;82.60;100847.38;10458950;28;20045;-66
2021/08/01 00:14:24;;;;;;;10.48;7.38;;;;;;;14.76;80.55;100850.03;10458610;28;20041;-65
2021/08/01 00:19:27;;;;;;;13.02;9.60;;;;;;;14.64;82.21;100842.09;10458562;28;20048;-67
2021/08/01 00:24:29;;;;;;;11.38;9.82;;;;;;;14.74;81.69;100842.25;10458839;28;20085;-65
2021/08/01 00:29:31;;;;;;;10.20;9.05;;;;;;;14.75;81.89;100843.94;10458540;28;20045;-66
2021/08/01 00:34:34;;;;;;;9.75;8.75;;;;;;;14.78;82.01;100842.88;10457009;28;20049;-67
2021/08/01 00:39:36;;;;;;;10.73;9.52;;;;;;;14.78;82.48;100833.16;10457865;28;20045;-67
2021/08/01 00:44:38;;;;;;;16.90;11.93;;;;;;;14.59;82.93;100824.94;10458028;28;20064;-67
2021/08/01 00:49:41;;;;;;;16.35;12.38;;;;;;;14.72;82.06;100833.59;10457704;28;20056;-68
2021/08/01 00:54:43;;;;;;;12.30;10.70;;;;;;;14.71;82.98;100831.09;10456122;28;20435;-67
2021/08/01 00:59:46;;;;;;;12.60;11.27;;;;;;;14.82;82.81;100833.78;10457382;28;20049;-65
2021/08/01 01:04:55;;;;;;;16.80;13.30;;;;;;;14.71;83.35;100829.31;10457411;28;20056;-67
2021/08/01 01:10:04;;;;;;;15.05;13.30;;;;;;;14.53;83.87;100828.00;10455687;28;20045;-66
2021/08/01 01:15:19;;;;;;;19.10;11.82;;;;;;;14.72;83.86;100832.78;10456694;28;20511;-67
2021/08/01 01:20:51;;;;;;;15.90;12.52;;;;;;;14.90;82.65;100820.03;10456769;28;20481;-68
2021/08/01 01:26:01;;;;;;;;;;;;;;;14.68;84.07;100817.19;10456730;28;20424;-66
2021/08/01 01:31:25;;;;;;;14.50;12.98;;;;;;;14.81;83.65;100811.84;10457506;28;19920;-67
2021/08/01 01:36:29;;;;;;;20.15;16.42;;;;;;;14.70;84.50;100806.53;10459302;28;20103;-68
2021/08/01 01:41:31;;;;;;;13.50;12.20;;;;;;;14.67;84.43;100798.84;10470011;28;20412;-67
2021/08/01 01:46:35;;;;;;;20.83;15.60;;;;;;;14.61;84.54;100804.59;10468668;28;20059;-67
2021/08/01 01:51:38;;;;;;;13.10;10.77;;;;;;;14.81;83.46;100798.69;10468808;28;20076;-67
2021/08/01 01:56:41;;;;;;;22.60;16.38;;;;;;;14.67;83.36;100798.84;10469659;28;20056;-66
2021/08/01 02:01:43;;;;;;;15.48;12.48;;;;;;;14.67;83.98;100790.94;10468666;28;20052;-68
2021/08/01 02:06:45;;;;;;;16.00;13.27;;;;;;;14.75;83.09;100791.22;10469509;28;20053;-66
2021/08/01 02:12:11;;;;;;;14.48;12.30;;;;;;;14.85;81.84;100791.38;10468750;28;20045;-65
2021/08/01 02:17:24;;;;;;;17.25;14.15;;;;;;;14.63;83.75;100784.25;10469652;28;20051;-66
2021/08/01 02:22:26;;;;;;;23.08;18.75;;;;;;;14.43;84.39;100781.25;10469326;28;20056;-65
2021/08/01 02:27:31;;;;;;;19.33;16.85;;;;;;;14.56;84.90;100785.59;10468634;28;20049;-67
2021/08/01 02:32:34;;;;;;;15.75;13.85;;;;;;;14.56;84.37;100790.88;10469241;28;20389;-68
2021/08/01 02:37:38;;;;;;;21.80;16.83;;;;;;;14.50;84.48;100790.38;10469538;28;20083;-68
2021/08/01 02:42:44;;;;;;;22.30;17.17;;;;;;;14.48;85.16;100779.13;10466299;28;20492;-68
2021/08/01 02:47:49;;;;;;;21.38;17.00;;;;;;;14.39;85.38;100790.34;10461541;28;20404;-65
2021/08/01 02:53:03;;;;;;;17.50;14.20;;;;;;;14.59;83.72;100794.19;10461777;28;20049;-67
2021/08/01 02:58:06;;;;;;;15.93;13.10;;;;;;;14.52;85.20;100792.91;10460879;28;20045;-67
2021/08/01 03:03:09;;;;;;;16.17;13.50;;;;;;;14.54;84.27;100792.78;10460986;28;20052;-68
2021/08/01 03:08:13;;;;;;;16.75;13.95;;;;;;;14.61;84.25;100786.16;10461541;28;20045;-67
2021/08/01 03:13:15;;;;;;;25.27;17.15;;;;;;;14.49;85.03;100796.63;10460392;28;20041;-67
2021/08/01 03:18:18;;;;;;;19.52;16.23;;;;;;;14.58;84.92;100799.53;10461315;28;20045;-67
2021/08/01 03:23:20;;;;;;;16.33;13.50;;;;;;;14.76;83.18;100799.97;10461067;28;20045;-65
2021/08/01 03:28:22;;;;;;;14.13;11.05;;;;;;;14.65;84.52;100801.59;10461116;28;20060;-66
2021/08/01 03:33:25;;;;;;;14.45;12.57;;;;;;;14.82;83.07;100800.34;10460756;28;20053;-65
2021/08/01 03:38:27;;;;;;;17.05;13.02;;;;;;;14.73;83.65;100802.84;10460434;28;20045;-66
2021/08/01 03:43:29;;;;;;;17.02;13.75;;;;;;;14.59;84.62;100802.09;10460668;28;20057;-68
2021/08/01 03:48:33;;;;;;;17.98;14.13;;;;;;;14.69;84.15;100802.22;10460690;28;20120;-66
2021/08/01 03:53:35;;;;;;;20.20;14.20;;;;;;;14.71;84.05;100799.47;10460332;28;20052;-65
2021/08/01 03:58:38;;;;;;;18.27;14.80;;;;;;;14.71;83.68;100804.72;10459182;28;20045;-68
2021/08/01 04:03:40;;;;;;;27.88;18.17;;;;;;;14.52;84.89;100799.97;10459857;28;20049;-66
2021/08/01 04:08:43;;;;;;;20.88;16.30;;;;;;;14.63;84.66;100806.16;10459006;28;20049;-67
2021/08/01 04:13:45;;;;;;;17.48;13.20;;;;;;;14.97;83.58;100803.63;10458674;28;20405;-67
2021/08/01 04:18:47;;;;;;;21.42;16.25;;;;;;;14.81;83.29;100808.34;10458646;28;20528;-65
2021/08/01 04:23:50;;;;;;;22.90;16.50;;;;;;;14.56;84.44;100804.91;10458760;28;20052;-65
2021/08/01 04:28:52;;;;;;;19.65;13.88;;;;;;;14.69;84.15;100804.84;10458410;28;20060;-68
2021/08/01 04:33:54;;;;;;;24.00;15.50;;;;;;;14.83;83.92;100801.19;10458449;28;20041;-69
2021/08/01 04:38:57;;;;;;;25.63;20.70;;;;;;;14.59;84.09;100802.09;10457930;28;20048;-66
2021/08/01 04:44:00;;;;;;;25.13;18.98;;;;;;;14.67;84.33;100798.84;10456821;28;20059;-67
2021/08/01 04:49:02;;;;;;;29.15;19.48;;;;;;;14.64;84.22;100807.84;10458050;28;20045;-67
2021/08/01 04:54:05;;;;;;;28.10;19.63;;;;;;;14.74;83.78;100807.16;10457917;28;20041;-66
2021/08/01 04:59:07;;;;;;;30.67;24.10;;;;;;;14.72;84.15;100807.25;10457218;28;20072;-66
2021/08/01 05:04:10;;;;;;;32.72;22.73;;;;;;;14.82;83.77;100797.69;10457129;28;20401;-68
2021/08/01 05:09:13;;;;;;;33.85;25.55;;;;;;;15.11;83.68;100793.81;10456149;28;20408;-67
2021/08/01 05:14:15;;;;;;;36.80;26.48;;;;;;;14.83;83.20;100795.94;10457176;28;20052;-66
2021/08/01 05:19:17;;;;;;;37.80;28.48;;;;;;;14.93;84.65;100799.53;10456704;28;20045;-66
2021/08/01 05:24:20;;;;;;;40.20;27.88;;;;;;;15.07;83.51;100801.13;10457038;28;20087;-67
2021/08/01 05:29:22;;;;;;;39.67;28.75;;;;;;;15.21;82.60;100789.50;10456763;28;20045;-66
2021/08/01 05:34:24;;;;;;;42.42;27.95;;;;;;;15.59;82.48;100790.97;10456534;28;20052;-66
2021/08/01 05:39:27;;;;;;;31.92;23.25;;;;;;;15.37;82.43;100786.53;10456001;28;20059;-65
2021/08/01 05:44:29;;;;;;;39.55;27.15;;;;;;;15.13;84.70;100790.13;10456186;28;20512;-66
2021/08/01 05:49:31;;;;;;;36.95;27.98;;;;;;;15.36;83.59;100779.56;10456023;28;20413;-66
2021/08/01 05:54:34;;;;;;;48.85;32.38;;;;;;;15.17;84.25;100777.53;10456281;28;20068;-67
2021/08/01 05:59:36;;;;;;;41.30;29.30;;;;;;;15.30;83.35;100780.03;10456075;28;20041;-66
2021/08/01 06:04:39;;;;;;;39.42;29.63;;;;;;;15.35;83.27;100785.81;10456088;28;20048;-67
2021/08/01 06:09:43;;;;;;;40.53;29.80;;;;;;;15.34;83.81;100784.13;10455629;28;20052;-66
2021/08/01 06:14:50;;;;;;;37.38;25.45;;;;;;;15.71;82.70;100797.09;10455861;28;20071;-67
2021/08/01 06:19:54;;;;;;;44.90;28.13;;;;;;;15.41;84.61;100795.88;10460126;28;20076;-68
2021/08/01 06:24:57;;;;;;;36.80;23.55;;;;;;;15.81;82.56;100799.88;10462043;28;20435;-65
2021/08/01 06:29:59;;;;;;;35.97;24.98;;;;;;;15.76;81.59;100803.69;10462852;28;20041;-67
2021/08/01 06:35:01;;;;;;;41.78;24.52;;;;;;;15.66;83.02;100812.44;10462874;28;20056;-66
2021/08/01 06:40:04;;;;;;;43.97;27.40;;;;;;;15.46;82.76;100811.38;10462424;28;20400;-65
2021/08/01 06:45:07;;;;;;;35.20;21.70;;;;;;;15.69;82.88;100815.69;10462624;28;20056;-66
2021/08/01 06:50:09;;;;;;;46.05;27.15;;;;;;;15.35;84.24;100825.41;10463581;28;20045;-67
2021/08/01 06:55:13;;;;;;;51.03;26.45;;;;;;;15.78;82.38;100815.00;10462307;28;20044;-66
2021/08/01 07:00:20;;;;;;;42.92;24.17;;;;;;;15.70;81.73;100819.16;10461688;28;20048;-67
2021/08/01 07:05:23;;;;;;;51.25;28.15;;;;;;;15.73;82.10;100818.91;10461806;28;20412;-67
2021/08/01 07:10:25;;;;;;;50.33;27.98;;;;;;;15.58;82.59;100827.09;10460241;28;20048;-66
2021/08/01 07:15:27;;;;;;;51.65;29.05;;;;;;;15.61;82.35;100836.53;10461047;28;20049;-67
2021/08/01 07:20:30;;;;;;;53.60;27.92;;;;;;;15.63;82.54;100834.63;10461137;28;20492;-67
2021/08/01 07:25:32;;;;;;;58.28;33.75;;;;;;;15.13;83.58;100826.19;10461526;28;20049;-66
2021/08/01 07:30:35;;;;;;;48.45;27.08;;;;;;;15.86;81.19;100832.84;10459989;28;20481;-68
2021/08/01 07:35:37;;;;;;;49.03;26.75;;;;;;;16.04;81.04;100841.13;10460210;28;20401;-65
2021/08/01 07:40:40;;;;;;;54.50;31.05;;;;;;;16.04;80.37;100834.97;10460382;28;20538;-68
2021/08/01 07:45:42;;;;;;;49.33;28.65;;;;;;;16.09;81.27;100835.47;10460175;28;20059;-65
2021/08/01 07:50:44;;;;;;;42.80;27.80;;;;;;;16.26;80.35;100832.31;10458684;28;20398;-68
2021/08/01 07:55:48;;;;;;;44.78;28.95;;;;;;;16.02;79.75;100836.91;10459793;28;20055;-67
2021/08/01 08:00:50;;;;;;;44.47;28.85;;;;;;;15.87;80.96;100841.59;10459685;28;20052;-65
2021/08/01 08:05:53;;;;;;;37.17;25.02;;;;;;;15.89;79.22;100844.97;10459394;28;20049;-66
2021/08/01 08:10:55;;;;;;;42.92;24.10;;;;;;;16.15;80.04;100851.69;10457852;28;20041;-65
2021/08/01 08:15:58;;;;;;;47.42;28.52;;;;;;;15.64;81.44;100848.69;10459016;28;20045;-67
2021/08/01 08:21:00;;;;;;;39.28;25.45;;;;;;;16.27;80.31;100854.28;10458952;28;20053;-68
2021/08/01 08:26:03;;;;;;;37.42;24.17;;;;;;;15.75;80.61;100843.38;10458724;28;20068;-68
2021/08/01 08:31:05;;;;;;;44.78;25.60;;;;;;;16.17;78.26;100854.16;10458647;28;20183;-67
2021/08/01 08:36:08;;;;;;;32.97;21.77;;;;;;;16.52;76.58;100846.06;10458289;28;20053;-66
2021/08/01 08:41:16;;;;;;;34.65;23.50;;;;;;;16.42;77.51;100854.84;10455937;28;20064;-67
2021/08/01 08:46:19;;;;;;;36.17;22.38;;;;;;;16.14;78.67;100854.44;10458424;28;20057;-66
2021/08/01 08:51:26;;;;;;;28.00;19.30;;;;;;;16.38;77.89;100854.25;10457564;28;20413;-68
2021/08/01 08:56:28;;;;;;;28.85;18.90;;;;;;;16.55;78.20;100857.34;10457516;28;20052;-66
2021/08/01 09:01:30;;;;;;;27.00;18.38;;;;;;;16.37;77.42;100864.94;10457305;28;20085;-66
2021/08/01 09:06:33;;;;;;;27.23;18.75;;;;;;;16.73;78.47;100863.75;10457073;28;20107;-67
2021/08/01 09:11:36;;;;;;;28.13;20.83;;;;;;;16.55;78.48;100863.44;10456930;28;20071;-67
2021/08/01 09:16:50;;;;;;;28.67;19.38;;;;;;;16.84;77.21;100862.84;10456528;28;20053;-66
2021/08/01 09:21:53;;;;;;;30.40;19.85;;;;;;;16.84;78.22;100868.16;10456785;28;20412;-67
2021/08/01 09:26:58;;;;;;;25.25;17.65;;;;;;;17.16;76.09;100873.41;10456525;28;20045;-65
2021/08/01 09:32:02;;;;;;;28.30;18.70;;;;;;;16.74;78.57;100875.16;10456287;28;20059;-65
2021/08/01 09:37:05;;;;;;;31.25;19.23;;;;;;;16.65;76.88;100877.59;10456301;28;20045;-68
2021/08/01 09:42:08;;;;;;;28.35;17.80;;;;;;;17.13;75.91;100880.78;10455278;28;20400;-65
2021/08/01 09:47:23;;;;;;;29.08;18.45;;;;;;;17.28;75.62;100876.84;10456111;28;20064;-67
2021/08/01 09:52:26;;;;;;;38.90;19.90;;;;;;;18.59;75.22;100869.94;10456725;28;20045;-66
2021/08/01 09:57:29;;;;;;;27.23;19.48;;;;;;;18.51;74.28;100866.19;10463092;28;20052;-67
2021/08/01 10:02:41;;;;;;;27.65;18.45;;;;;;;19.22;71.74;100873.03;10464161;28;20049;-66
2021/08/01 10:07:45;;;;;;;25.38;17.83;;;;;;;19.28;71.89;100872.47;10463873;28;20447;-68
2021/08/01 10:12:52;;;;;;;25.75;18.38;;;;;;;19.57;69.69;100862.72;10464117;28;20045;-66
2021/08/01 10:17:54;;;;;;;25.55;17.58;;;;;;;21.05;66.17;100856.38;10463449;28;20049;-66
2021/08/01 10:22:56;;;;;;;22.77;17.55;;;;;;;20.20;65.67;100860.22;10463459;28;20045;-67
2021/08/01 10:28:00;;;;;;;23.95;16.55;;;;;;;20.94;66.81;100849.47;10462129;28;20060;-67
2021/08/01 10:33:12;;;;;;;16.65;14.20;;;;;;;22.05;63.41;100844.25;10463562;28;20049;-67
2021/08/01 10:38:15;;;;;;;17.63;14.63;;;;;;;22.95;62.46;100834.75;10461515;28;20485;-67
2021/08/01 10:43:19;;;;;;;20.88;15.38;;;;;;;21.36;65.09;100827.44;10462108;28;20053;-65
2021/08/01 10:48:27;;;;;;;18.40;14.43;;;;;;;21.72;64.85;100840.66;10462664;28;20048;-66
2021/08/01 10:53:29;;;;;;;25.08;16.60;;;;;;;21.19;63.96;100834.50;10461163;28;20044;-65
2021/08/01 10:58:35;;;;;;;20.75;15.25;;;;;;;20.74;65.85;100835.50;10461885;28;20128;-65
2021/08/01 11:03:39;;;;;;;26.13;16.63;;;;;;;21.82;64.84;100820.03;10461549;28;20405;-67
2021/08/01 11:09:08;;;;;;;20.48;15.27;;;;;;;21.62;66.29;100832.78;10460992;28;20512;-65
2021/08/01 11:14:49;;;;;;;19.73;15.77;;;;;;;20.54;67.55;100834.78;10461497;28;20489;-64
2021/08/01 11:19:52;;;;;;;21.80;15.07;;;;;;;19.47;70.81;100837.03;10461193;28;20584;-67
2021/08/01 11:25:19;;;;;;;22.23;17.20;;;;;;;19.83;68.49;100836.38;10461165;28;20049;-66
2021/08/01 11:30:22;;;;;;;21.55;15.05;;;;;;;20.38;67.27;100838.16;10460789;28;20044;-68
2021/08/01 11:35:25;;;;;;;20.20;14.15;;;;;;;19.91;69.08;100830.34;10460677;28;20049;-65
2021/08/01 11:40:43;;;;;;;17.70;14.50;;;;;;;20.27;67.48;100828.53;10460479;28;20132;-66
2021/08/01 11:46:03;;;;;;;21.80;16.02;;;;;;;19.88;68.19;100835.94;10460805;28;20045;-66
2021/08/01 11:51:07;;;;;;;19.77;13.98;;;;;;;19.82;69.19;100840.84;10460098;28;20500;-65
2021/08/01 11:56:11;;;;;;;20.63;14.85;;;;;;;20.06;68.16;100838.66;10460096;28;20045;-65
2021/08/01 12:01:15;;;;;;;23.02;14.52;;;;;;;20.09;67.68;100843.63;10459140;28;20052;-63
2021/08/01 12:06:37;;;;;;;20.58;14.77;;;;;;;20.80;64.53;100834.91;10456475;28;20049;-64
2021/08/01 12:11:40;;;;;;;18.85;13.40;;;;;;;21.36;64.30;100842.59;10458395;28;20049;-64
2021/08/01 12:16:59;;;;;;;16.55;13.27;;;;;;;21.50;64.36;100834.03;10458054;28;20045;-64
2021/08/01 12:22:10;;;;;;;9.82;8.80;;;;;;;21.10;62.38;100838.13;10459056;28;20489;-64
2021/08/01 12:27:20;;;;;;;;;;;;;;;21.79;59.02;100828.34;10459166;28;20045;-63
2021/08/01 12:32:42;;;;;;;8.73;6.85;;;;;;;20.15;62.89;100837.72;10458533;28;19921;-63
2021/08/01 12:37:49;;;;;;;9.30;7.03;;;;;;;20.04;64.29;100839.63;10458046;28;20079;-63
2021/08/01 12:42:53;;;;;;;10.60;7.50;;;;;;;19.67;66.06;100847.59;10458014;28;20524;-63
2021/08/01 12:47:56;;;;;;;7.55;6.68;;;;;;;19.74;67.00;100850.50;10457705;28;20049;-63
2021/08/01 12:52:59;;;;;;;14.05;11.95;;;;;;;19.95;67.75;100856.44;10456840;28;20049;-63
2021/08/01 12:58:06;;;;;;;17.27;13.00;;;;;;;19.40;71.23;100874.94;10455912;28;20477;-65
2021/08/01 13:03:11;;;;;;;26.40;16.02;;;;;;;18.48;77.10;100871.75;10458005;28;20068;-62
2021/08/01 13:08:16;;;;;;;19.55;15.07;;;;;;;18.74;76.23;100880.03;10456862;28;20102;-63
2021/08/01 13:13:19;;;;;;;24.17;16.40;;;;;;;18.51;79.79;100881.25;10456942;28;20045;-63
2021/08/01 13:18:33;;;;;;;23.58;17.80;;;;;;;18.66;79.97;100884.31;10457134;28;20053;-63
2021/08/01 13:23:39;;;;;;;12.30;9.85;;;;;;;17.76;80.75;100883.38;10457880;28;20110;-64
2021/08/01 13:28:56;;;;;;;11.27;8.50;;;;;;;17.79;80.00;100894.53;10454957;28;20063;-64
2021/08/01 13:34:34;;;;;;;8.88;6.78;;;;;;;17.36;82.16;100892.06;10457092;28;20045;-64
2021/08/01 13:39:37;;;;;;;5.60;4.03;;;;;;;17.75;79.38;100892.28;10456311;28;20056;-65
2021/08/01 13:44:55;;;;;;;4.25;3.72;;;;;;;17.84;80.34;100896.78;10456811;28;20088;-65
2021/08/01 13:50:04;;;;;;;4.38;3.15;;;;;;;17.41;80.12;100901.28;10456476;28;20053;-65
2021/08/01 13:55:07;;;;;;;3.40;3.10;;;;;;;17.61;79.62;100899.59;10456075;28;20485;-65
2021/08/01 14:00:11;;;;;;;3.40;2.47;;;;;;;18.42;77.87;100890.03;10454967;28;20051;-65
2021/08/01 14:05:13;;;;;;;2.85;2.65;;;;;;;18.86;76.96;100891.34;10455659;28;20064;-65
2021/08/01 14:10:15;;;;;;;3.15;2.90;;;;;;;18.95;77.18;100894.97;10454772;28;20059;-65
2021/08/01 14:15:18;;;;;;;3.15;2.60;;;;;;;19.79;75.73;100896.94;10455522;28;20393;-64
2021/08/01 14:20:20;;;;;;;4.38;2.97;;;;;;;19.54;73.18;100911.66;10453114;28;20056;-65
2021/08/01 14:25:22;;;;;;;3.35;3.05;;;;;;;19.06;77.13;100902.81;10455344;28;20504;-63
2021/08/01 14:30:26;;;;;;;3.58;3.20;;;;;;;18.58;77.28;100906.25;10455540;28;20045;-65
2021/08/01 14:35:28;;;;;;;4.97;4.00;;;;;;;18.78;78.49;100912.41;10454085;28;20057;-64
2021/08/01 14:40:30;;;;;;;4.68;4.03;;;;;;;18.28;79.39;100907.16;10457280;28;20497;-64
2021/08/01 14:45:33;;;;;;;5.13;3.92;;;;;;;18.39;78.49;100904.38;10462318;28;20040;-64
2021/08/01 14:50:44;;;;;;;4.43;4.03;;;;;;;18.89;77.37;100906.16;10462257;28;20049;-63
2021/08/01 14:55:58;;;;;;;5.27;3.90;;;;;;;22.18;68.59;100898.97;10461202;28;20049;-65
2021/08/01 15:01:20;;;;;;;6.22;5.28;;;;;;;20.85;69.94;100893.81;10460682;28;20773;-64
2021/08/01 15:06:33;;;;;;;5.57;5.10;;;;;;;20.67;72.59;100895.63;10460431;28;20128;-63
2021/08/01 15:11:52;;;;;;;5.35;4.90;;;;;;;20.45;70.63;100900.38;10460430;28;20116;-64
2021/08/01 15:17:16;;;;;;;6.72;5.35;;;;;;;19.58;73.39;100894.44;10461209;28;20485;-66
2021/08/01 15:22:29;;;;;;;6.45;5.32;;;;;;;19.90;74.52;100911.00;10461005;28;20048;-66
2021/08/01 15:27:32;;;;;;;5.57;5.07;;;;;;;21.82;68.70;100904.47;10461154;28;20064;-66
2021/08/01 15:32:36;;;;;;;5.90;4.82;;;;;;;22.61;66.08;100900.63;10459865;28;20048;-65
2021/08/01 15:37:42;;;;;;;4.00;3.53;;;;;;;22.68;62.37;100913.28;10460577;28;20055;-64
2021/08/01 15:43:04;;;;;;;5.13;4.63;;;;;;;21.03;68.34;100898.25;10461326;28;20400;-64
2021/08/01 15:48:06;;;;;;;3.80;3.50;;;;;;;20.25;69.40;100917.44;10460170;28;20404;-67
2021/08/01 15:53:09;;;;;;;4.00;3.55;;;;;;;19.60;71.67;100913.75;10459543;28;20500;-64
2021/08/01 15:58:21;;;;;;;4.82;3.90;;;;;;;21.17;67.85;100913.69;10459789;28;20049;-65
2021/08/01 16:03:47;;;;;;;4.90;4.43;;;;;;;21.07;67.22;100910.28;10458672;28;20049;-65
2021/08/01 16:08:59;;;;;;;4.22;3.83;;;;;;;20.56;71.21;100912.59;10459820;28;20063;-64
2021/08/01 16:14:04;;;;;;;3.83;3.45;;;;;;;19.71;72.56;100922.53;10459261;28;20048;-64
2021/08/01 16:19:09;;;;;;;5.43;3.58;;;;;;;20.25;69.44;100915.59;10457572;28;20052;-65
2021/08/01 16:24:12;;;;;;;9.57;5.25;;;;;;;19.72;71.22;100919.72;10457957;28;20045;-64
2021/08/01 16:29:14;;;;;;;33.80;9.10;;;;;;;19.59;72.56;100920.03;10458241;28;20412;-64
2021/08/01 16:34:17;;;;;;;5.10;3.40;;;;;;;20.35;70.31;100913.72;10457353;28;20512;-65
2021/08/01 16:39:20;;;;;;;5.78;3.75;;;;;;;20.09;72.10;100920.72;10458363;28;20041;-63
2021/08/01 16:44:34;;;;;;;2.90;2.60;;;;;;;20.10;70.97;100917.91;10458078;28;20497;-64
2021/08/01 16:49:56;;;;;;;3.83;3.50;;;;;;;19.96;71.35;100924.53;10457818;28;20459;-64
2021/08/01 16:55:06;;;;;;;3.33;2.90;;;;;;;19.66;71.29;100923.78;10457614;28;20438;-63
2021/08/01 17:00:10;;;;;;;4.53;3.47;;;;;;;19.61;70.16;100928.69;10457901;28;20045;-63
2021/08/01 17:05:31;;;;;;;3.13;2.83;;;;;;;19.29;71.89;100931.69;10455739;28;20052;-65
2021/08/01 17:10:43;;;;;;;2.88;2.67;;;;;;;19.27;71.57;100926.50;10457337;28;20052;-64
2021/08/01 17:15:47;;;;;;;3.85;3.00;;;;;;;19.05;73.48;100934.78;10457401;28;20056;-64
2021/08/01 17:20:49;;;;;;;3.05;2.83;;;;;;;18.59;73.85;100941.53;10456551;28;20132;-63
2021/08/01 17:25:51;;;;;;;1.80;1.70;;;;;;;18.12;74.16;100952.69;10456627;28;20496;-64
2021/08/01 17:31:01;;;;;;;3.03;2.33;;;;;;;17.82;76.68;100947.25;10456586;28;20045;-62
2021/08/01 17:36:07;;;;;;;4.13;1.58;;;;;;;17.92;76.58;100946.47;10455578;28;20099;-63
2021/08/01 17:41:10;;;;;;;2.13;1.70;;;;;;;17.79;78.51;100960.75;10438745;28;20057;-64
2021/08/01 17:46:12;;;;;;;2.58;2.13;;;;;;;17.94;77.40;100963.91;10456100;28;20045;-63
2021/08/01 17:51:16;;;;;;;2.60;2.28;;;;;;;18.19;76.25;100972.41;10455171;28;20057;-62
2021/08/01 17:56:18;;;;;;;2.17;2.00;;;;;;;18.10;76.27;100979.31;10456017;28;20041;-63
2021/08/01 18:01:21;;;;;;;2.17;1.83;;;;;;;17.81;75.10;100981.81;10456022;28;20409;-62
2021/08/01 18:06:33;;;;;;;1.60;1.50;;;;;;;17.51;76.01;100985.22;10438376;28;20067;-62
2021/08/01 18:11:45;;;;;;;1.73;1.45;;;;;;;17.76;75.93;100989.28;10455172;28;20045;-62
2021/08/01 18:16:52;;;;;;;2.90;1.92;;;;;;;17.78;76.41;101003.25;10462025;28;20049;-62
2021/08/01 18:21:54;;;;;;;6.70;1.92;;;;;;;17.76;76.32;100999.88;10464288;28;20049;-63
2021/08/01 18:26:57;;;;;;;4.10;1.42;;;;;;;18.03;75.10;101006.50;10462444;28;20056;-63
2021/08/01 18:31:59;;;;;;;3.88;2.03;;;;;;;17.76;75.56;101011.31;10462452;28;20052;-62
2021/08/01 18:37:02;;;;;;;5.90;2.63;;;;;;;17.75;75.91;101025.53;10462704;28;20103;-63
2021/08/01 18:42:11;;;;;;;22.77;8.10;;;;;;;17.52;76.85;101016.03;10463281;28;20052;-63
2021/08/01 18:47:14;;;;;;;4.35;1.52;;;;;;;17.33;78.75;101036.09;10462625;28;20501;-63
2021/08/01 18:52:23;;;;;;;4.32;2.00;;;;;;;17.40;78.98;101042.53;10461410;28;20041;-63
2021/08/01 18:57:25;;;;;;;5.60;2.17;;;;;;;17.46;78.59;101049.97;10461283;28;20401;-63
2021/08/01 19:02:28;;;;;;;6.13;2.60;;;;;;;17.53;78.43;101052.09;10462036;28;20057;-62
2021/08/01 19:07:31;;;;;;;5.32;2.40;;;;;;;17.14;78.17;101057.06;10462381;28;20049;-62
2021/08/01 19:12:34;;;;;;;3.00;1.75;;;;;;;17.01;75.31;101071.28;10461698;28;20056;-62
2021/08/01 19:17:51;;;;;;;4.93;1.50;;;;;;;17.03;75.04;101072.00;10461562;28;20049;-63
2021/08/01 19:23:13;;;;;;;2.88;1.55;;;;;;;16.77;76.45;101079.31;10461317;28;20489;-63
2021/08/01 19:28:22;;;;;;;4.07;1.80;;;;;;;16.79;76.42;101092.44;10459814;28;20057;-63
2021/08/01 19:33:29;;;;;;;4.47;1.88;;;;;;;16.58;76.83;101092.31;10460594;28;20401;-63
2021/08/01 19:38:35;;;;;;;2.22;1.60;;;;;;;16.38;76.64;101097.34;10459785;28;20060;-63
2021/08/01 19:43:37;;;;;;;7.07;1.58;;;;;;;16.32;76.75;101113.66;10459303;28;20493;-63
2021/08/01 19:48:41;;;;;;;2.60;1.80;;;;;;;16.33;77.80;101112.72;10459066;28;20386;-63
2021/08/01 19:53:43;;;;;;;3.28;1.67;;;;;;;16.31;78.09;101110.19;10459445;28;20052;-63
2021/08/01 19:58:45;;;;;;;5.63;1.92;;;;;;;16.33;77.31;101113.53;10459985;28;20052;-64
2021/08/01 20:03:48;;;;;;;3.13;1.88;;;;;;;16.15;78.40;101120.22;10460075;28;20045;-63
2021/08/01 20:08:52;;;;;;;4.32;1.50;;;;;;;16.37;77.70;101118.59;10459606;28;20051;-64
2021/08/01 20:13:57;;;;;;;4.28;1.85;;;;;;;16.30;77.96;101121.69;10460079;28;20041;-64
2021/08/01 20:19:00;;;;;;;6.15;1.98;;;;;;;16.14;78.66;101119.41;10459046;28;20041;-64
2021/08/01 20:24:05;;;;;;;4.53;1.95;;;;;;;16.03;78.45;101123.81;10458934;28;20041;-63
2021/08/01 20:29:07;;;;;;;3.60;1.40;;;;;;;16.15;78.65;101128.16;10458343;28;20561;-65
2021/08/01 20:34:10;;;;;;;3.53;2.20;;;;;;;16.05;78.91;101124.53;10458454;28;20477;-64
2021/08/01 20:39:12;;;;;;;1.80;1.60;;;;;;;16.03;79.38;101129.94;10458767;28;20089;-64
2021/08/01 20:44:14;;;;;;;6.10;1.83;;;;;;;15.87;78.31;101139.94;10457091;28;20056;-63
2021/08/01 20:49:17;;;;;;;3.63;1.67;;;;;;;15.59;79.70;101140.16;10457978;28;20049;-63
2021/08/01 20:54:20;;;;;;;4.63;2.58;;;;;;;15.39;78.35;101138.97;10457675;28;20405;-64
2021/08/01 20:59:22;;;;;;;2.78;2.15;;;;;;;15.37;79.19;101148.78;10455893;28;20053;-63
2021/08/01 21:04:25;;;;;;;8.60;2.42;;;;;;;15.32;79.20;101150.91;10457493;28;20481;-64
2021/08/01 21:09:28;;;;;;;6.82;3.83;;;;;;;15.21;79.01;101149.06;10457119;28;20053;-66
2021/08/01 21:14:30;;;;;;;14.23;8.82;;;;;;;14.87;79.18;101158.50;10457505;28;20044;-63
2021/08/01 21:19:32;;;;;;;5.82;2.47;;;;;;;14.78;79.01;101164.41;10457083;28;20060;-63
2021/08/01 21:24:35;;;;;;;3.80;2.25;;;;;;;14.77;79.44;101168.00;10456876;28;20041;-63
2021/08/01 21:29:37;;;;;;;5.25;1.98;;;;;;;14.82;79.66;101163.25;10456355;28;20489;-65
2021/08/01 21:34:39;;;;;;;6.15;1.92;;;;;;;14.70;79.45;101167.56;10456698;28;20045;-64
2021/08/01 21:39:42;;;;;;;3.83;1.95;;;;;;;14.81;78.92;101172.97;10456746;28;20057;-64
2021/08/01 21:44:44;;;;;;;6.40;2.30;;;;;;;14.64;79.69;101168.00;10456404;28;20057;-64
2021/08/01 21:49:46;;;;;;;4.68;2.30;;;;;;;14.80;78.98;101171.25;10459218;28;20053;-64
2021/08/01 21:54:49;;;;;;;3.78;2.00;;;;;;;14.24;80.29;101168.00;10465423;28;20052;-64
2021/08/01 21:59:51;;;;;;;5.80;2.80;;;;;;;14.37;79.46;101173.31;10464382;28;20072;-65
2021/08/01 22:04:54;;;;;;;9.13;2.92;;;;;;;14.18;80.77;101182.44;10464210;28;20049;-63
2021/08/01 22:09:59;;;;;;;10.23;2.90;;;;;;;14.07;81.52;101175.28;10462742;28;20053;-64
2021/08/01 22:15:01;;;;;;;8.07;2.53;;;;;;;14.06;81.95;101176.22;10464833;28;20067;-65
2021/08/01 22:20:05;;;;;;;4.32;2.25;;;;;;;14.09;81.58;101177.81;10463624;28;20049;-64
2021/08/01 22:25:08;;;;;;;7.68;2.20;;;;;;;14.06;80.70;101186.75;10463718;28;20048;-65
2021/08/01 22:30:11;;;;;;;6.18;2.35;;;;;;;13.98;80.91;101196.09;10463624;28;20056;-65
2021/08/01 22:35:16;;;;;;;4.38;2.00;;;;;;;13.99;81.10;101188.09;10445611;28;20045;-64
2021/08/01 22:40:20;;;;;;;3.58;1.83;;;;;;;13.78;81.73;101185.06;10461639;28;20515;-66
2021/08/01 22:45:23;;;;;;;7.25;2.60;;;;;;;13.96;80.52;101190.09;10463176;28;20408;-65
2021/08/01 22:50:25;;;;;;;4.90;2.30;;;;;;;13.57;82.34;101190.75;10462914;28;20056;-66
2021/08/01 22:55:28;;;;;;;3.60;1.67;;;;;;;13.62;81.43;101200.16;10461378;28;20120;-65
2021/08/01 23:00:32;;;;;;;8.57;2.35;;;;;;;13.63;81.55;101194.78;10459469;28;20568;-64
2021/08/01 23:05:36;;;;;;;7.25;2.40;;;;;;;13.53;82.32;101201.56;10462208;28;20053;-64
2021/08/01 23:11:05;;;;;;;4.03;1.92;;;;;;;13.94;81.45;101200.72;10460930;28;20053;-65